Terminal Aerodrome Forecast
Issued by NWS Norman, OK

Home | Current Version | Previous Version | Text Only | Print | Product List | Glossary On
Versions: 1 2 3 4 5 6 7 8 9 10 11 12 13 14 15 16 17 18 19 20 21 22 23 24 25 26
168
FTUS44 KOUN 250520
TAFOKC
TAF
KOKC 250520Z 2506/2606 16007KT P6SM SCT030 BKN060
      TEMPO 2506/2509 6SM -RA
     FM250900 16006KT 4SM TSRA BR OVC012CB
     FM251500 VRB04KT 5SM -TSRA OVC025CB
     FM252100 01012G20KT P6SM OVC025
      TEMPO 2521/2524 P6SM -SHRA OVC025
     FM260300 01010KT P6SM OVC100=

USA.gov is the U.S. government's official web portal to all federal, state and local government web resources and services.